createdAt,value
2023-04-05T00:02:13.913Z,64.36
2023-04-05T00:05:41.356Z,64.63
2023-04-05T00:09:08.444Z,64.74
2023-04-05T00:12:35.132Z,64.91
2023-04-05T00:16:02.792Z,64.98
2023-04-05T00:19:33.953Z,65.02
2023-04-05T00:23:01.096Z,65.00
2023-04-05T00:26:28.136Z,65.34
2023-04-05T00:29:56.457Z,65.43
2023-04-05T00:33:23.500Z,65.40
2023-04-05T00:36:50.562Z,65.37
2023-04-05T00:40:17.530Z,65.21
2023-04-05T00:43:44.802Z,65.07
2023-04-05T00:47:11.737Z,65.09
2023-04-05T00:50:39.387Z,65.13
2023-04-05T00:54:08.654Z,65.12
2023-04-05T00:57:39.147Z,65.09
2023-04-05T01:01:13.799Z,65.09
2023-04-05T01:04:50.195Z,64.98
2023-04-05T01:08:23.463Z,65.21
2023-04-05T01:11:53.520Z,65.58
2023-04-05T01:15:20.811Z,65.67
2023-04-05T01:18:47.795Z,66.13
2023-04-05T01:23:01.590Z,66.28
2023-04-05T01:26:54.718Z,66.47
2023-04-05T01:30:25.594Z,66.60
2023-04-05T01:33:59.037Z,66.67
2023-04-05T01:37:32.957Z,66.84
2023-04-05T01:41:00.431Z,67.31
2023-04-05T01:44:27.427Z,67.78
2023-04-05T01:47:59.079Z,67.68
2023-04-05T01:51:26.816Z,67.71
2023-04-05T01:54:53.943Z,67.95
2023-04-05T01:58:20.794Z,67.90
2023-04-05T02:01:47.699Z,68.13
2023-04-05T02:05:14.948Z,68.20
2023-04-05T02:08:42.020Z,68.29
2023-04-05T02:12:09.915Z,68.28
2023-04-05T02:15:38.222Z,68.35
2023-04-05T02:19:05.847Z,68.47
2023-04-05T02:22:32.837Z,68.68
2023-04-05T02:26:00.347Z,68.93
2023-04-05T02:29:27.714Z,69.24
2023-04-05T02:32:54.653Z,69.36
2023-04-05T02:36:22.279Z,69.35
2023-04-05T02:39:49.436Z,69.78
2023-04-05T02:43:16.615Z,69.85
2023-04-05T02:46:43.524Z,70.16
2023-04-05T02:50:11.881Z,70.13
2023-04-05T02:53:44.863Z,70.47
2023-04-05T02:57:13.906Z,70.38
2023-04-05T03:00:51.531Z,70.56
2023-04-05T03:04:21.622Z,70.62
2023-04-05T03:07:51.384Z,70.90
2023-04-05T03:11:19.742Z,70.97
2023-04-05T03:14:50.547Z,71.22
2023-04-05T03:18:20.897Z,71.19
2023-04-05T03:21:48.294Z,71.29
2023-04-05T03:25:26.238Z,71.28
2023-04-05T03:28:53.464Z,71.44
2023-04-05T03:32:26.499Z,71.64
2023-04-05T03:36:00.640Z,71.63
2023-04-05T03:39:29.074Z,71.81
2023-04-05T03:42:56.997Z,71.80
2023-04-05T03:46:24.606Z,72.10
2023-04-05T03:49:51.706Z,72.15
2023-04-05T03:53:19.641Z,72.19
2023-04-05T03:56:49.590Z,72.29
2023-04-05T04:00:18.949Z,72.55
2023-04-05T04:03:55.641Z,72.83
2023-04-05T04:07:24.540Z,72.82
2023-04-05T04:10:51.790Z,72.80
2023-04-05T04:14:22.916Z,72.69
2023-04-05T04:18:09.013Z,72.88
2023-04-05T04:21:56.043Z,72.90
2023-04-05T04:25:46.246Z,72.94
2023-04-05T04:29:47.064Z,73.16
2023-04-05T04:33:31.088Z,73.22
2023-04-05T04:37:17.786Z,73.31
2023-04-05T04:41:10.920Z,73.36
2023-04-05T04:45:03.197Z,73.28
2023-04-05T04:48:58.562Z,73.39
2023-04-05T04:52:32.171Z,73.65
2023-04-05T04:55:59.275Z,73.75
2023-04-05T04:59:26.443Z,73.72
2023-04-05T05:02:53.821Z,73.89
2023-04-05T05:06:22.096Z,73.75
2023-04-05T05:09:52.466Z,73.71
2023-04-05T05:13:19.437Z,73.64
2023-04-05T05:16:46.487Z,73.72
2023-04-05T05:20:14.808Z,74.17
2023-04-05T05:23:45.780Z,74.86
2023-04-05T05:27:12.650Z,74.42
2023-04-05T05:30:39.927Z,73.52
2023-04-05T05:34:07.558Z,72.99
2023-04-05T05:37:36.763Z,73.07
2023-04-05T05:41:03.707Z,72.69
2023-04-05T05:44:31.752Z,72.26
2023-04-05T05:47:59.186Z,71.39
2023-04-05T05:51:26.366Z,70.83
2023-04-05T05:54:53.145Z,69.32
2023-04-05T05:58:19.950Z,67.42
2023-04-05T06:01:47.627Z,66.33
2023-04-05T06:05:14.684Z,66.17
2023-04-05T06:08:41.821Z,66.32
2023-04-05T06:12:09.468Z,66.08
2023-04-05T06:15:37.016Z,65.32
2023-04-05T06:19:04.044Z,65.03
2023-04-05T06:22:30.951Z,64.14
2023-04-05T06:25:58.604Z,62.74
2023-04-05T06:29:25.482Z,61.59
2023-04-05T06:32:54.670Z,60.73
2023-04-05T06:36:21.943Z,59.81
2023-04-05T06:39:49.175Z,55.86
2023-04-05T06:43:16.518Z,54.95
2023-04-05T06:46:43.344Z,55.47
2023-04-05T06:50:11.974Z,55.87
2023-04-05T06:53:38.940Z,54.65
2023-04-05T06:57:05.989Z,55.79
2023-04-05T07:00:34.667Z,54.40
2023-04-05T07:04:01.700Z,55.67
2023-04-05T07:07:28.832Z,57.23
2023-04-05T07:10:56.078Z,57.28
2023-04-05T07:14:22.998Z,54.80
2023-04-05T07:17:50.062Z,54.16
2023-04-05T07:21:18.039Z,55.70
2023-04-05T07:24:46.106Z,54.21
2023-04-05T07:28:14.261Z,53.31
2023-04-05T07:31:41.561Z,52.90
2023-04-05T07:35:10.786Z,53.32
2023-04-05T07:38:37.930Z,54.60
2023-04-05T07:42:05.088Z,55.35
2023-04-05T07:45:32.062Z,55.16
2023-04-05T07:48:59.540Z,54.67
2023-04-05T07:52:26.487Z,54.74
2023-04-05T07:55:54.654Z,55.05
2023-04-05T07:59:22.104Z,54.57
2023-04-05T08:02:49.159Z,54.36
2023-04-05T08:06:18.351Z,53.57
2023-04-05T08:09:45.218Z,54.75
2023-04-05T08:13:12.137Z,53.47
2023-04-05T08:16:39.140Z,54.32
2023-04-05T08:20:07.470Z,52.22
2023-04-05T08:23:34.461Z,51.55
2023-04-05T08:27:02.070Z,51.36
2023-04-05T08:30:30.406Z,53.05
2023-04-05T08:33:57.324Z,53.42
2023-04-05T08:37:26.278Z,52.41
